sensor_id;sensor_type;location;lat;lon;timestamp;P1;durP1;ratioP1;P2;durP2;ratioP2
68583;SDS011;55557;49.220;11.150;2023-04-24T00:00:23;0.00;;;0.00;;
68583;SDS011;55557;49.220;11.150;2023-04-24T00:02:49;0.00;;;0.00;;
68583;SDS011;55557;49.220;11.150;2023-04-24T00:05:16;0.00;;;0.00;;
68583;SDS011;55557;49.220;11.150;2023-04-24T00:07:42;0.07;;;0.07;;
68583;SDS011;55557;49.220;11.150;2023-04-24T00:10:09;0.00;;;0.00;;
68583;SDS011;55557;49.220;11.150;2023-04-24T00:12:35;0.00;;;0.00;;
68583;SDS011;55557;49.220;11.150;2023-04-24T00:15:01;0.00;;;0.00;;
68583;SDS011;55557;49.220;11.150;2023-04-24T00:17:27;0.00;;;0.00;;
68583;SDS011;55557;49.220;11.150;2023-04-24T00:19:53;0.00;;;0.00;;
68583;SDS011;55557;49.220;11.150;2023-04-24T00:22:29;0.00;;;0.00;;
68583;SDS011;55557;49.220;11.150;2023-04-24T00:24:55;0.00;;;0.00;;
68583;SDS011;55557;49.220;11.150;2023-04-24T00:27:21;0.00;;;0.00;;
68583;SDS011;55557;49.220;11.150;2023-04-24T00:29:47;0.00;;;0.00;;
68583;SDS011;55557;49.220;11.150;2023-04-24T00:32:13;0.00;;;0.00;;
68583;SDS011;55557;49.220;11.150;2023-04-24T00:34:40;0.00;;;0.00;;
68583;SDS011;55557;49.220;11.150;2023-04-24T00:37:06;0.03;;;0.03;;
68583;SDS011;55557;49.220;11.150;2023-04-24T00:39:32;0.00;;;0.00;;
68583;SDS011;55557;49.220;11.150;2023-04-24T00:41:58;0.00;;;0.00;;
68583;SDS011;55557;49.220;11.150;2023-04-24T00:44:24;0.00;;;0.00;;
68583;SDS011;55557;49.220;11.150;2023-04-24T00:46:50;0.00;;;0.00;;
68583;SDS011;55557;49.220;11.150;2023-04-24T00:49:19;0.00;;;0.00;;
68583;SDS011;55557;49.220;11.150;2023-04-24T00:51:45;0.00;;;0.00;;
68583;SDS011;55557;49.220;11.150;2023-04-24T00:54:12;0.00;;;0.00;;
68583;SDS011;55557;49.220;11.150;2023-04-24T00:56:38;0.00;;;0.00;;
68583;SDS011;55557;49.220;11.150;2023-04-24T00:59:05;0.00;;;0.00;;
68583;SDS011;55557;49.220;11.150;2023-04-24T01:01:31;0.00;;;0.00;;
68583;SDS011;55557;49.220;11.150;2023-04-24T01:03:57;0.00;;;0.00;;
68583;SDS011;55557;49.220;11.150;2023-04-24T01:06:26;0.00;;;0.00;;
68583;SDS011;55557;49.220;11.150;2023-04-24T01:08:53;0.00;;;0.00;;
68583;SDS011;55557;49.220;11.150;2023-04-24T01:11:20;0.00;;;0.00;;
68583;SDS011;55557;49.220;11.150;2023-04-24T01:13:47;0.00;;;0.00;;
68583;SDS011;55557;49.220;11.150;2023-04-24T01:16:16;0.00;;;0.00;;
68583;SDS011;55557;49.220;11.150;2023-04-24T01:18:42;0.00;;;0.00;;
68583;SDS011;55557;49.220;11.150;2023-04-24T01:21:08;0.00;;;0.00;;
68583;SDS011;55557;49.220;11.150;2023-04-24T01:23:34;0.00;;;0.00;;
68583;SDS011;55557;49.220;11.150;2023-04-24T01:26:01;0.00;;;0.00;;
68583;SDS011;55557;49.220;11.150;2023-04-24T01:28:27;0.00;;;0.00;;
68583;SDS011;55557;49.220;11.150;2023-04-24T01:30:53;0.00;;;0.00;;
68583;SDS011;55557;49.220;11.150;2023-04-24T01:33:20;0.07;;;0.07;;
68583;SDS011;55557;49.220;11.150;2023-04-24T01:35:46;0.00;;;0.00;;
68583;SDS011;55557;49.220;11.150;2023-04-24T01:38:12;0.00;;;0.00;;
68583;SDS011;55557;49.220;11.150;2023-04-24T01:40:38;0.00;;;0.00;;
68583;SDS011;55557;49.220;11.150;2023-04-24T01:43:05;0.00;;;0.00;;
68583;SDS011;55557;49.220;11.150;2023-04-24T01:45:31;0.00;;;0.00;;
68583;SDS011;55557;49.220;11.150;2023-04-24T01:47:57;0.10;;;0.10;;
68583;SDS011;55557;49.220;11.150;2023-04-24T01:50:23;0.00;;;0.00;;
68583;SDS011;55557;49.220;11.150;2023-04-24T01:52:49;0.00;;;0.00;;
68583;SDS011;55557;49.220;11.150;2023-04-24T01:55:15;0.00;;;0.00;;
68583;SDS011;55557;49.220;11.150;2023-04-24T01:57:41;0.03;;;0.03;;
68583;SDS011;55557;49.220;11.150;2023-04-24T02:00:07;0.00;;;0.00;;
68583;SDS011;55557;49.220;11.150;2023-04-24T02:02:33;0.00;;;0.00;;
68583;SDS011;55557;49.220;11.150;2023-04-24T02:04:59;0.03;;;0.03;;
68583;SDS011;55557;49.220;11.150;2023-04-24T02:07:25;0.03;;;0.03;;
68583;SDS011;55557;49.220;11.150;2023-04-24T02:09:51;0.00;;;0.00;;
68583;SDS011;55557;49.220;11.150;2023-04-24T02:12:17;0.00;;;0.00;;
68583;SDS011;55557;49.220;11.150;2023-04-24T02:14:43;0.00;;;0.00;;
68583;SDS011;55557;49.220;11.150;2023-04-24T02:17:10;0.00;;;0.00;;
68583;SDS011;55557;49.220;11.150;2023-04-24T02:19:37;0.00;;;0.00;;
68583;SDS011;55557;49.220;11.150;2023-04-24T02:22:04;0.07;;;0.07;;
68583;SDS011;55557;49.220;11.150;2023-04-24T02:24:30;0.00;;;0.00;;
68583;SDS011;55557;49.220;11.150;2023-04-24T02:26:56;0.00;;;0.00;;
68583;SDS011;55557;49.220;11.150;2023-04-24T02:29:22;0.00;;;0.00;;
68583;SDS011;55557;49.220;11.150;2023-04-24T02:31:49;0.00;;;0.00;;
68583;SDS011;55557;49.220;11.150;2023-04-24T02:34:15;0.07;;;0.07;;
68583;SDS011;55557;49.220;11.150;2023-04-24T02:36:41;0.00;;;0.00;;
68583;SDS011;55557;49.220;11.150;2023-04-24T02:39:07;0.10;;;0.10;;
68583;SDS011;55557;49.220;11.150;2023-04-24T02:41:33;0.00;;;0.00;;
68583;SDS011;55557;49.220;11.150;2023-04-24T02:43:59;0.00;;;0.00;;
68583;SDS011;55557;49.220;11.150;2023-04-24T02:46:25;0.00;;;0.00;;
68583;SDS011;55557;49.220;11.150;2023-04-24T02:48:52;0.00;;;0.00;;
68583;SDS011;55557;49.220;11.150;2023-04-24T02:51:18;0.00;;;0.00;;
68583;SDS011;55557;49.220;11.150;2023-04-24T02:53:44;0.00;;;0.00;;
68583;SDS011;55557;49.220;11.150;2023-04-24T02:56:10;0.00;;;0.00;;
68583;SDS011;55557;49.220;11.150;2023-04-24T02:58:38;0.10;;;0.10;;
68583;SDS011;55557;49.220;11.150;2023-04-24T03:01:04;0.00;;;0.00;;
68583;SDS011;55557;49.220;11.150;2023-04-24T03:03:30;0.10;;;0.10;;
68583;SDS011;55557;49.220;11.150;2023-04-24T03:05:56;0.00;;;0.00;;
68583;SDS011;55557;49.220;11.150;2023-04-24T03:08:23;0.00;;;0.00;;
68583;SDS011;55557;49.220;11.150;2023-04-24T03:10:49;0.00;;;0.00;;
68583;SDS011;55557;49.220;11.150;2023-04-24T03:13:16;0.00;;;0.00;;
68583;SDS011;55557;49.220;11.150;2023-04-24T03:15:42;0.10;;;0.10;;
68583;SDS011;55557;49.220;11.150;2023-04-24T03:18:08;0.00;;;0.00;;
68583;SDS011;55557;49.220;11.150;2023-04-24T03:20:34;0.00;;;0.00;;
68583;SDS011;55557;49.220;11.150;2023-04-24T03:23:01;0.00;;;0.00;;
68583;SDS011;55557;49.220;11.150;2023-04-24T03:25:27;0.00;;;0.00;;
68583;SDS011;55557;49.220;11.150;2023-04-24T03:27:53;0.00;;;0.00;;
68583;SDS011;55557;49.220;11.150;2023-04-24T03:30:20;0.00;;;0.00;;
68583;SDS011;55557;49.220;11.150;2023-04-24T03:32:46;0.07;;;0.07;;
68583;SDS011;55557;49.220;11.150;2023-04-24T03:35:11;0.00;;;0.00;;
68583;SDS011;55557;49.220;11.150;2023-04-24T03:37:37;0.00;;;0.00;;
68583;SDS011;55557;49.220;11.150;2023-04-24T03:40:04;0.00;;;0.00;;
68583;SDS011;55557;49.220;11.150;2023-04-24T03:42:31;0.00;;;0.00;;
68583;SDS011;55557;49.220;11.150;2023-04-24T03:44:57;0.00;;;0.00;;
68583;SDS011;55557;49.220;11.150;2023-04-24T03:47:23;0.00;;;0.00;;
68583;SDS011;55557;49.220;11.150;2023-04-24T03:49:49;0.00;;;0.00;;
68583;SDS011;55557;49.220;11.150;2023-04-24T03:52:15;0.00;;;0.00;;
68583;SDS011;55557;49.220;11.150;2023-04-24T03:54:41;0.00;;;0.00;;
68583;SDS011;55557;49.220;11.150;2023-04-24T03:57:07;0.00;;;0.00;;
68583;SDS011;55557;49.220;11.150;2023-04-24T03:59:33;0.00;;;0.00;;
68583;SDS011;55557;49.220;11.150;2023-04-24T04:01:59;0.00;;;0.00;;
68583;SDS011;55557;49.220;11.150;2023-04-24T04:04:25;0.00;;;0.00;;
68583;SDS011;55557;49.220;11.150;2023-04-24T04:06:51;0.00;;;0.00;;
68583;SDS011;55557;49.220;11.150;2023-04-24T04:09:18;0.00;;;0.00;;
68583;SDS011;55557;49.220;11.150;2023-04-24T04:11:44;0.00;;;0.00;;
68583;SDS011;55557;49.220;11.150;2023-04-24T04:14:10;0.10;;;0.10;;
68583;SDS011;55557;49.220;11.150;2023-04-24T04:16:36;0.00;;;0.00;;
68583;SDS011;55557;49.220;11.150;2023-04-24T04:19:02;0.00;;;0.00;;
68583;SDS011;55557;49.220;11.150;2023-04-24T04:21:28;0.00;;;0.00;;
68583;SDS011;55557;49.220;11.150;2023-04-24T04:23:56;0.00;;;0.00;;
68583;SDS011;55557;49.220;11.150;2023-04-24T04:26:22;0.10;;;0.10;;
68583;SDS011;55557;49.220;11.150;2023-04-24T04:28:50;0.10;;;0.10;;
68583;SDS011;55557;49.220;11.150;2023-04-24T04:31:16;0.00;;;0.00;;
68583;SDS011;55557;49.220;11.150;2023-04-24T04:33:42;0.00;;;0.00;;
68583;SDS011;55557;49.220;11.150;2023-04-24T04:36:08;0.00;;;0.00;;
68583;SDS011;55557;49.220;11.150;2023-04-24T04:38:34;0.00;;;0.00;;
68583;SDS011;55557;49.220;11.150;2023-04-24T04:41:01;0.00;;;0.00;;
68583;SDS011;55557;49.220;11.150;2023-04-24T04:43:27;0.00;;;0.00;;
68583;SDS011;55557;49.220;11.150;2023-04-24T04:45:54;0.00;;;0.00;;
68583;SDS011;55557;49.220;11.150;2023-04-24T04:48:21;0.00;;;0.00;;
68583;SDS011;55557;49.220;11.150;2023-04-24T04:50:47;0.00;;;0.00;;
68583;SDS011;55557;49.220;11.150;2023-04-24T04:53:13;0.00;;;0.00;;
68583;SDS011;55557;49.220;11.150;2023-04-24T04:55:39;0.00;;;0.00;;
68583;SDS011;55557;49.220;11.150;2023-04-24T04:58:05;0.00;;;0.00;;
68583;SDS011;55557;49.220;11.150;2023-04-24T05:00:31;0.00;;;0.00;;
68583;SDS011;55557;49.220;11.150;2023-04-24T05:03:00;0.00;;;0.00;;
68583;SDS011;55557;49.220;11.150;2023-04-24T05:05:27;0.00;;;0.00;;
68583;SDS011;55557;49.220;11.150;2023-04-24T05:07:53;0.00;;;0.00;;
68583;SDS011;55557;49.220;11.150;2023-04-24T05:10:19;0.07;;;0.07;;
68583;SDS011;55557;49.220;11.150;2023-04-24T05:12:45;0.10;;;0.10;;
68583;SDS011;55557;49.220;11.150;2023-04-24T05:15:11;0.00;;;0.00;;
68583;SDS011;55557;49.220;11.150;2023-04-24T05:17:37;0.10;;;0.10;;
68583;SDS011;55557;49.220;11.150;2023-04-24T05:20:04;0.00;;;0.00;;
68583;SDS011;55557;49.220;11.150;2023-04-24T05:22:31;0.00;;;0.00;;
68583;SDS011;55557;49.220;11.150;2023-04-24T05:25:04;0.00;;;0.00;;
68583;SDS011;55557;49.220;11.150;2023-04-24T05:27:30;0.00;;;0.00;;
68583;SDS011;55557;49.220;11.150;2023-04-24T05:29:56;0.00;;;0.00;;
68583;SDS011;55557;49.220;11.150;2023-04-24T05:32:22;0.00;;;0.00;;
68583;SDS011;55557;49.220;11.150;2023-04-24T05:34:48;0.00;;;0.00;;
68583;SDS011;55557;49.220;11.150;2023-04-24T05:37:15;0.10;;;0.10;;
68583;SDS011;55557;49.220;11.150;2023-04-24T05:39:41;0.00;;;0.00;;
68583;SDS011;55557;49.220;11.150;2023-04-24T05:42:07;0.00;;;0.00;;
68583;SDS011;55557;49.220;11.150;2023-04-24T05:44:33;0.00;;;0.00;;
68583;SDS011;55557;49.220;11.150;2023-04-24T05:46:59;0.10;;;0.10;;
68583;SDS011;55557;49.220;11.150;2023-04-24T05:49:26;0.00;;;0.00;;
68583;SDS011;55557;49.220;11.150;2023-04-24T05:51:52;0.00;;;0.00;;
68583;SDS011;55557;49.220;11.150;2023-04-24T05:54:18;0.00;;;0.00;;
68583;SDS011;55557;49.220;11.150;2023-04-24T05:56:44;0.00;;;0.00;;
68583;SDS011;55557;49.220;11.150;2023-04-24T05:59:11;0.00;;;0.00;;
68583;SDS011;55557;49.220;11.150;2023-04-24T06:01:37;1.60;;;1.40;;
68583;SDS011;55557;49.220;11.150;2023-04-24T06:04:03;5.57;;;2.33;;
68583;SDS011;55557;49.220;11.150;2023-04-24T06:06:30;3.37;;;2.50;;
68583;SDS011;55557;49.220;11.150;2023-04-24T06:08:57;2.67;;;2.13;;
68583;SDS011;55557;49.220;11.150;2023-04-24T06:11:23;4.30;;;3.03;;
68583;SDS011;55557;49.220;11.150;2023-04-24T06:13:50;2.77;;;1.90;;
68583;SDS011;55557;49.220;11.150;2023-04-24T06:16:16;3.67;;;1.70;;
68583;SDS011;55557;49.220;11.150;2023-04-24T06:18:42;5.57;;;1.63;;
68583;SDS011;55557;49.220;11.150;2023-04-24T06:21:09;1.87;;;1.40;;
68583;SDS011;55557;49.220;11.150;2023-04-24T06:23:35;2.03;;;1.60;;
68583;SDS011;55557;49.220;11.150;2023-04-24T06:26:01;4.28;;;2.10;;
68583;SDS011;55557;49.220;11.150;2023-04-24T06:28:27;3.07;;;2.13;;
68583;SDS011;55557;49.220;11.150;2023-04-24T06:30:53;3.93;;;2.17;;
68583;SDS011;55557;49.220;11.150;2023-04-24T06:33:19;1.93;;;1.73;;
68583;SDS011;55557;49.220;11.150;2023-04-24T06:35:45;5.90;;;1.87;;
68583;SDS011;55557;49.220;11.150;2023-04-24T06:38:11;2.53;;;2.20;;
68583;SDS011;55557;49.220;11.150;2023-04-24T06:40:37;3.90;;;1.90;;
68583;SDS011;55557;49.220;11.150;2023-04-24T06:43:03;2.60;;;1.80;;
68583;SDS011;55557;49.220;11.150;2023-04-24T06:45:31;3.43;;;1.80;;
68583;SDS011;55557;49.220;11.150;2023-04-24T06:47:57;3.27;;;1.70;;
68583;SDS011;55557;49.220;11.150;2023-04-24T06:50:23;1.70;;;1.50;;
68583;SDS011;55557;49.220;11.150;2023-04-24T06:52:49;2.47;;;2.00;;
68583;SDS011;55557;49.220;11.150;2023-04-24T06:55:15;5.30;;;2.03;;
68583;SDS011;55557;49.220;11.150;2023-04-24T06:57:41;3.77;;;1.73;;
68583;SDS011;55557;49.220;11.150;2023-04-24T07:00:07;9.67;;;1.53;;
68583;SDS011;55557;49.220;11.150;2023-04-24T07:02:34;2.13;;;1.47;;
68583;SDS011;55557;49.220;11.150;2023-04-24T07:05:00;1.50;;;1.10;;
68583;SDS011;55557;49.220;11.150;2023-04-24T07:07:26;1.27;;;0.93;;
68583;SDS011;55557;49.220;11.150;2023-04-24T07:09:53;2.23;;;1.20;;
68583;SDS011;55557;49.220;11.150;2023-04-24T07:12:19;1.23;;;1.13;;
68583;SDS011;55557;49.220;11.150;2023-04-24T07:14:46;3.17;;;1.27;;
68583;SDS011;55557;49.220;11.150;2023-04-24T07:17:12;1.50;;;1.07;;
68583;SDS011;55557;49.220;11.150;2023-04-24T07:19:39;2.73;;;1.00;;
68583;SDS011;55557;49.220;11.150;2023-04-24T07:22:05;1.57;;;1.30;;
68583;SDS011;55557;49.220;11.150;2023-04-24T07:24:31;2.93;;;1.40;;
68583;SDS011;55557;49.220;11.150;2023-04-24T07:26:57;2.10;;;1.67;;
68583;SDS011;55557;49.220;11.150;2023-04-24T07:29:25;5.50;;;2.30;;
68583;SDS011;55557;49.220;11.150;2023-04-24T07:31:51;2.87;;;1.83;;
68583;SDS011;55557;49.220;11.150;2023-04-24T07:34:19;1.47;;;0.90;;
68583;SDS011;55557;49.220;11.150;2023-04-24T07:36:45;2.67;;;1.90;;
68583;SDS011;55557;49.220;11.150;2023-04-24T07:39:11;5.57;;;1.87;;
68583;SDS011;55557;49.220;11.150;2023-04-24T07:41:37;1.83;;;1.43;;
68583;SDS011;55557;49.220;11.150;2023-04-24T07:44:03;3.10;;;1.20;;
68583;SDS011;55557;49.220;11.150;2023-04-24T07:46:30;1.67;;;1.27;;
68583;SDS011;55557;49.220;11.150;2023-04-24T07:48:56;1.40;;;1.27;;
68583;SDS011;55557;49.220;11.150;2023-04-24T07:51:24;1.63;;;1.50;;
68583;SDS011;55557;49.220;11.150;2023-04-24T07:53:52;3.63;;;1.90;;
68583;SDS011;55557;49.220;11.150;2023-04-24T07:56:19;4.17;;;1.60;;
68583;SDS011;55557;49.220;11.150;2023-04-24T07:58:45;3.63;;;1.57;;
68583;SDS011;55557;49.220;11.150;2023-04-24T08:01:11;4.93;;;1.97;;
68583;SDS011;55557;49.220;11.150;2023-04-24T08:03:37;1.73;;;1.50;;
68583;SDS011;55557;49.220;11.150;2023-04-24T08:06:03;2.63;;;2.37;;
68583;SDS011;55557;49.220;11.150;2023-04-24T08:08:29;2.60;;;2.20;;
68583;SDS011;55557;49.220;11.150;2023-04-24T08:10:55;2.90;;;2.60;;
68583;SDS011;55557;49.220;11.150;2023-04-24T08:13:21;2.53;;;2.30;;
68583;SDS011;55557;49.220;11.150;2023-04-24T08:15:47;4.07;;;2.10;;
68583;SDS011;55557;49.220;11.150;2023-04-24T08:18:13;3.47;;;2.83;;
68583;SDS011;55557;49.220;11.150;2023-04-24T08:20:40;4.10;;;2.60;;
68583;SDS011;55557;49.220;11.150;2023-04-24T08:23:06;2.93;;;2.60;;
68583;SDS011;55557;49.220;11.150;2023-04-24T08:25:32;2.90;;;2.60;;
68583;SDS011;55557;49.220;11.150;2023-04-24T08:28:00;2.73;;;2.50;;
68583;SDS011;55557;49.220;11.150;2023-04-24T08:30:26;3.27;;;2.77;;
68583;SDS011;55557;49.220;11.150;2023-04-24T08:32:52;3.67;;;2.30;;
68583;SDS011;55557;49.220;11.150;2023-04-24T08:35:18;3.30;;;2.73;;
68583;SDS011;55557;49.220;11.150;2023-04-24T08:37:44;2.93;;;2.50;;
68583;SDS011;55557;49.220;11.150;2023-04-24T08:40:12;2.80;;;2.40;;
68583;SDS011;55557;49.220;11.150;2023-04-24T08:42:39;3.00;;;2.70;;
68583;SDS011;55557;49.220;11.150;2023-04-24T08:45:07;2.40;;;2.20;;
68583;SDS011;55557;49.220;11.150;2023-04-24T08:47:34;2.97;;;2.67;;
68583;SDS011;55557;49.220;11.150;2023-04-24T08:50:02;3.37;;;2.73;;
68583;SDS011;55557;49.220;11.150;2023-04-24T08:52:30;2.87;;;2.00;;
68583;SDS011;55557;49.220;11.150;2023-04-24T08:54:56;2.30;;;2.10;;
68583;SDS011;55557;49.220;11.150;2023-04-24T08:57:23;2.90;;;2.60;;
68583;SDS011;55557;49.220;11.150;2023-04-24T08:59:50;4.40;;;2.20;;
68583;SDS011;55557;49.220;11.150;2023-04-24T09:02:17;3.23;;;2.50;;
68583;SDS011;55557;49.220;11.150;2023-04-24T09:04:43;4.17;;;2.40;;
68583;SDS011;55557;49.220;11.150;2023-04-24T09:07:10;2.77;;;2.20;;
68583;SDS011;55557;49.220;11.150;2023-04-24T09:09:37;3.53;;;2.63;;
68583;SDS011;55557;49.220;11.150;2023-04-24T09:12:04;4.20;;;2.70;;
68583;SDS011;55557;49.220;11.150;2023-04-24T09:14:31;3.37;;;2.00;;
68583;SDS011;55557;49.220;11.150;2023-04-24T09:16:57;2.60;;;2.00;;
68583;SDS011;55557;49.220;11.150;2023-04-24T09:19:23;2.23;;;2.03;;
68583;SDS011;55557;49.220;11.150;2023-04-24T09:21:49;2.70;;;2.20;;
68583;SDS011;55557;49.220;11.150;2023-04-24T09:24:19;2.37;;;2.17;;
68583;SDS011;55557;49.220;11.150;2023-04-24T09:26:48;1.80;;;1.70;;
68583;SDS011;55557;49.220;11.150;2023-04-24T09:29:17;4.07;;;1.90;;
68583;SDS011;55557;49.220;11.150;2023-04-24T09:31:43;3.10;;;2.10;;
68583;SDS011;55557;49.220;11.150;2023-04-24T09:34:10;2.40;;;1.93;;
68583;SDS011;55557;49.220;11.150;2023-04-24T09:36:37;2.20;;;1.77;;
68583;SDS011;55557;49.220;11.150;2023-04-24T09:39:07;3.40;;;1.87;;
68583;SDS011;55557;49.220;11.150;2023-04-24T09:41:35;1.57;;;1.47;;
68583;SDS011;55557;49.220;11.150;2023-04-24T09:44:13;3.40;;;1.80;;
68583;SDS011;55557;49.220;11.150;2023-04-24T09:46:40;2.83;;;1.67;;
68583;SDS011;55557;49.220;11.150;2023-04-24T09:49:12;1.80;;;1.40;;
68583;SDS011;55557;49.220;11.150;2023-04-24T09:51:38;1.93;;;1.37;;
68583;SDS011;55557;49.220;11.150;2023-04-24T09:54:11;2.23;;;1.77;;
68583;SDS011;55557;49.220;11.150;2023-04-24T09:56:41;2.37;;;1.43;;
68583;SDS011;55557;49.220;11.150;2023-04-24T09:59:08;1.97;;;1.47;;
68583;SDS011;55557;49.220;11.150;2023-04-24T10:01:34;1.50;;;1.40;;
68583;SDS011;55557;49.220;11.150;2023-04-24T10:04:01;2.87;;;1.20;;
68583;SDS011;55557;49.220;11.150;2023-04-24T10:06:34;2.10;;;1.23;;
68583;SDS011;55557;49.220;11.150;2023-04-24T10:09:00;1.57;;;1.30;;
68583;SDS011;55557;49.220;11.150;2023-04-24T10:11:27;1.57;;;1.10;;
68583;SDS011;55557;49.220;11.150;2023-04-24T10:13:53;3.13;;;1.50;;
68583;SDS011;55557;49.220;11.150;2023-04-24T10:16:22;3.60;;;1.40;;
68583;SDS011;55557;49.220;11.150;2023-04-24T10:18:49;1.30;;;1.20;;
68583;SDS011;55557;49.220;11.150;2023-04-24T10:21:18;2.77;;;1.53;;
68583;SDS011;55557;49.220;11.150;2023-04-24T10:23:45;3.27;;;1.70;;
68583;SDS011;55557;49.220;11.150;2023-04-24T10:26:14;1.87;;;1.10;;
68583;SDS011;55557;49.220;11.150;2023-04-24T10:28:46;2.50;;;1.53;;
68583;SDS011;55557;49.220;11.150;2023-04-24T10:31:12;2.13;;;1.47;;
68583;SDS011;55557;49.220;11.150;2023-04-24T10:33:39;2.00;;;1.63;;
68583;SDS011;55557;49.220;11.150;2023-04-24T10:36:06;1.90;;;1.30;;
68583;SDS011;55557;49.220;11.150;2023-04-24T10:38:32;3.27;;;1.10;;
68583;SDS011;55557;49.220;11.150;2023-04-24T10:41:09;1.17;;;1.00;;
68583;SDS011;55557;49.220;11.150;2023-04-24T10:43:41;1.60;;;1.03;;
68583;SDS011;55557;49.220;11.150;2023-04-24T10:46:07;1.27;;;1.07;;
68583;SDS011;55557;49.220;11.150;2023-04-24T10:48:35;0.87;;;0.87;;
68583;SDS011;55557;49.220;11.150;2023-04-24T10:51:01;1.80;;;0.97;;
68583;SDS011;55557;49.220;11.150;2023-04-24T10:53:28;2.70;;;1.40;;
68583;SDS011;55557;49.220;11.150;2023-04-24T10:56:05;1.93;;;1.23;;
68583;SDS011;55557;49.220;11.150;2023-04-24T10:58:38;3.80;;;1.43;;
68583;SDS011;55557;49.220;11.150;2023-04-24T11:01:05;1.53;;;0.70;;
68583;SDS011;55557;49.220;11.150;2023-04-24T11:03:32;1.37;;;1.13;;
68583;SDS011;55557;49.220;11.150;2023-04-24T11:06:08;2.40;;;1.13;;
68583;SDS011;55557;49.220;11.150;2023-04-24T11:08:38;1.10;;;1.00;;
68583;SDS011;55557;49.220;11.150;2023-04-24T11:11:09;0.80;;;0.80;;
68583;SDS011;55557;49.220;11.150;2023-04-24T11:18:52;1.20;;;0.70;;
68583;SDS011;55557;49.220;11.150;2023-04-24T11:21:25;0.60;;;0.60;;
68583;SDS011;55557;49.220;11.150;2023-04-24T11:23:51;2.23;;;0.90;;
68583;SDS011;55557;49.220;11.150;2023-04-24T11:26:18;0.90;;;0.77;;
68583;SDS011;55557;49.220;11.150;2023-04-24T11:28:47;1.87;;;0.87;;
68583;SDS011;55557;49.220;11.150;2023-04-24T11:34:05;0.83;;;0.77;;
68583;SDS011;55557;49.220;11.150;2023-04-24T11:36:31;1.50;;;1.13;;
68583;SDS011;55557;49.220;11.150;2023-04-24T11:38:57;1.40;;;1.20;;
68583;SDS011;55557;49.220;11.150;2023-04-24T11:41:23;2.23;;;0.90;;
68583;SDS011;55557;49.220;11.150;2023-04-24T11:43:50;1.50;;;1.10;;
68583;SDS011;55557;49.220;11.150;2023-04-24T11:46:17;1.43;;;1.10;;
68583;SDS011;55557;49.220;11.150;2023-04-24T11:48:46;0.80;;;0.80;;
68583;SDS011;55557;49.220;11.150;2023-04-24T11:51:13;1.07;;;0.90;;
68583;SDS011;55557;49.220;11.150;2023-04-24T11:53:39;0.97;;;0.97;;
68583;SDS011;55557;49.220;11.150;2023-04-24T11:56:05;1.20;;;0.90;;
68583;SDS011;55557;49.220;11.150;2023-04-24T11:58:38;2.40;;;1.00;;
68583;SDS011;55557;49.220;11.150;2023-04-24T12:01:04;1.13;;;1.03;;
68583;SDS011;55557;49.220;11.150;2023-04-24T12:03:30;1.77;;;1.20;;
68583;SDS011;55557;49.220;11.150;2023-04-24T12:06:09;0.80;;;0.80;;
68583;SDS011;55557;49.220;11.150;2023-04-24T12:08:36;0.97;;;0.97;;
68583;SDS011;55557;49.220;11.150;2023-04-24T12:11:02;2.10;;;1.13;;
68583;SDS011;55557;49.220;11.150;2023-04-24T12:13:29;6.13;;;1.23;;
68583;SDS011;55557;49.220;11.150;2023-04-24T12:15:56;1.77;;;1.10;;
68583;SDS011;55557;49.220;11.150;2023-04-24T12:18:23;4.50;;;1.70;;
68583;SDS011;55557;49.220;11.150;2023-04-24T12:20:49;1.60;;;1.10;;
68583;SDS011;55557;49.220;11.150;2023-04-24T12:23:15;1.50;;;1.10;;
68583;SDS011;55557;49.220;11.150;2023-04-24T12:25:42;1.50;;;1.13;;
68583;SDS011;55557;49.220;11.150;2023-04-24T12:30:41;1.20;;;1.00;;
68583;SDS011;55557;49.220;11.150;2023-04-24T12:33:09;1.30;;;1.20;;
68583;SDS011;55557;49.220;11.150;2023-04-24T12:35:35;5.13;;;1.10;;
68583;SDS011;55557;49.220;11.150;2023-04-24T12:38:08;2.13;;;1.27;;
68583;SDS011;55557;49.220;11.150;2023-04-24T12:40:34;3.17;;;1.40;;
68583;SDS011;55557;49.220;11.150;2023-04-24T12:43:01;2.13;;;1.67;;
68583;SDS011;55557;49.220;11.150;2023-04-24T12:45:27;1.87;;;1.27;;
68583;SDS011;55557;49.220;11.150;2023-04-24T12:47:53;2.37;;;1.33;;
68583;SDS011;55557;49.220;11.150;2023-04-24T12:50:19;1.00;;;1.00;;
68583;SDS011;55557;49.220;11.150;2023-04-24T12:52:47;1.47;;;1.10;;
68583;SDS011;55557;49.220;11.150;2023-04-24T12:55:13;2.13;;;1.43;;
68583;SDS011;55557;49.220;11.150;2023-04-24T12:57:39;2.17;;;1.17;;
68583;SDS011;55557;49.220;11.150;2023-04-24T13:00:06;5.60;;;1.33;;
68583;SDS011;55557;49.220;11.150;2023-04-24T13:02:32;1.63;;;1.03;;
68583;SDS011;55557;49.220;11.150;2023-04-24T13:04:59;2.83;;;1.73;;
68583;SDS011;55557;49.220;11.150;2023-04-24T13:07:25;2.27;;;1.50;;
68583;SDS011;55557;49.220;11.150;2023-04-24T13:09:52;1.13;;;0.83;;
68583;SDS011;55557;49.220;11.150;2023-04-24T13:12:18;2.33;;;1.07;;
68583;SDS011;55557;49.220;11.150;2023-04-24T13:14:45;1.20;;;1.10;;
68583;SDS011;55557;49.220;11.150;2023-04-24T13:17:11;1.40;;;1.17;;
68583;SDS011;55557;49.220;11.150;2023-04-24T13:19:38;1.03;;;0.93;;
68583;SDS011;55557;49.220;11.150;2023-04-24T13:22:04;4.73;;;1.30;;
68583;SDS011;55557;49.220;11.150;2023-04-24T13:24:31;2.03;;;1.30;;
68583;SDS011;55557;49.220;11.150;2023-04-24T13:26:57;2.30;;;1.07;;
68583;SDS011;55557;49.220;11.150;2023-04-24T13:29:23;2.87;;;1.83;;
68583;SDS011;55557;49.220;11.150;2023-04-24T13:31:50;1.83;;;1.50;;
68583;SDS011;55557;49.220;11.150;2023-04-24T13:34:16;2.27;;;1.73;;
68583;SDS011;55557;49.220;11.150;2023-04-24T13:36:42;1.27;;;1.17;;
68583;SDS011;55557;49.220;11.150;2023-04-24T13:39:08;1.60;;;1.50;;
68583;SDS011;55557;49.220;11.150;2023-04-24T13:41:35;1.77;;;1.60;;
68583;SDS011;55557;49.220;11.150;2023-04-24T13:44:02;2.60;;;1.63;;
68583;SDS011;55557;49.220;11.150;2023-04-24T13:46:28;3.90;;;2.03;;
68583;SDS011;55557;49.220;11.150;2023-04-24T13:48:54;1.70;;;1.40;;
68583;SDS011;55557;49.220;11.150;2023-04-24T13:51:20;2.47;;;1.80;;
68583;SDS011;55557;49.220;11.150;2023-04-24T13:53:46;1.90;;;1.60;;
68583;SDS011;55557;49.220;11.150;2023-04-24T13:56:12;2.87;;;1.97;;
68583;SDS011;55557;49.220;11.150;2023-04-24T13:58:39;2.67;;;1.30;;
68583;SDS011;55557;49.220;11.150;2023-04-24T14:01:05;2.50;;;1.03;;
68583;SDS011;55557;49.220;11.150;2023-04-24T14:03:32;1.30;;;1.20;;
68583;SDS011;55557;49.220;11.150;2023-04-24T14:05:58;2.63;;;1.60;;
68583;SDS011;55557;49.220;11.150;2023-04-24T14:08:24;3.17;;;1.42;;
68583;SDS011;55557;49.220;11.150;2023-04-24T14:10:50;3.63;;;1.50;;
68583;SDS011;55557;49.220;11.150;2023-04-24T14:44:19;1.43;;;1.33;;
68583;SDS011;55557;49.220;11.150;2023-04-24T14:46:45;1.40;;;1.30;;
68583;SDS011;55557;49.220;11.150;2023-04-24T14:49:11;2.33;;;1.60;;
68583;SDS011;55557;49.220;11.150;2023-04-24T14:51:48;2.17;;;1.57;;
68583;SDS011;55557;49.220;11.150;2023-04-24T14:54:14;4.10;;;1.60;;
68583;SDS011;55557;49.220;11.150;2023-04-24T14:56:41;1.53;;;1.43;;
68583;SDS011;55557;49.220;11.150;2023-04-24T14:59:09;1.80;;;1.53;;
68583;SDS011;55557;49.220;11.150;2023-04-24T15:01:36;2.13;;;1.63;;
68583;SDS011;55557;49.220;11.150;2023-04-24T15:04:02;1.67;;;1.50;;
68583;SDS011;55557;49.220;11.150;2023-04-24T15:06:29;1.83;;;1.73;;
68583;SDS011;55557;49.220;11.150;2023-04-24T15:08:56;2.37;;;1.73;;
68583;SDS011;55557;49.220;11.150;2023-04-24T15:11:22;3.20;;;1.70;;